sensor_id;sensor_type;location;lat;lon;timestamp;P1;durP1;ratioP1;P2;durP2;ratioP2
13244;SDS011;6689;53.400;12.486;2022-09-13T00:00:09;5.53;;;2.50;;
13244;SDS011;6689;53.400;12.486;2022-09-13T00:02:50;3.45;;;2.83;;
13244;SDS011;6689;53.400;12.486;2022-09-13T00:05:24;6.40;;;2.95;;
13244;SDS011;6689;53.400;12.486;2022-09-13T00:10:49;5.72;;;2.72;;
13244;SDS011;6689;53.400;12.486;2022-09-13T00:13:30;3.80;;;2.88;;
13244;SDS011;6689;53.400;12.486;2022-09-13T00:16:11;3.80;;;3.08;;
13244;SDS011;6689;53.400;12.486;2022-09-13T00:18:47;3.35;;;2.95;;
13244;SDS011;6689;53.400;12.486;2022-09-13T00:21:15;3.45;;;2.70;;
13244;SDS011;6689;53.400;12.486;2022-09-13T00:23:51;5.88;;;3.33;;
13244;SDS011;6689;53.400;12.486;2022-09-13T00:26:20;3.95;;;3.25;;
13244;SDS011;6689;53.400;12.486;2022-09-13T00:28:52;6.40;;;3.15;;
13244;SDS011;6689;53.400;12.486;2022-09-13T00:31:35;3.78;;;3.25;;
13244;SDS011;6689;53.400;12.486;2022-09-13T00:34:04;3.80;;;3.33;;
13244;SDS011;6689;53.400;12.486;2022-09-13T00:36:45;3.20;;;2.90;;
13244;SDS011;6689;53.400;12.486;2022-09-13T00:39:25;5.30;;;3.35;;
13244;SDS011;6689;53.400;12.486;2022-09-13T00:41:54;6.57;;;3.58;;
13244;SDS011;6689;53.400;12.486;2022-09-13T00:44:46;3.92;;;3.50;;
13244;SDS011;6689;53.400;12.486;2022-09-13T00:47:22;3.72;;;3.35;;
13244;SDS011;6689;53.400;12.486;2022-09-13T00:50:01;5.05;;;3.28;;
13244;SDS011;6689;53.400;12.486;2022-09-13T00:52:35;3.67;;;3.38;;
13244;SDS011;6689;53.400;12.486;2022-09-13T00:55:10;4.57;;;3.15;;
13244;SDS011;6689;53.400;12.486;2022-09-13T00:57:55;4.35;;;3.45;;
13244;SDS011;6689;53.400;12.486;2022-09-13T01:00:35;4.00;;;3.60;;
13244;SDS011;6689;53.400;12.486;2022-09-13T01:03:05;3.60;;;3.22;;
13244;SDS011;6689;53.400;12.486;2022-09-13T01:05:40;4.13;;;3.30;;
13244;SDS011;6689;53.400;12.486;2022-09-13T01:08:15;4.03;;;3.63;;
13244;SDS011;6689;53.400;12.486;2022-09-13T01:13:44;3.53;;;3.22;;
13244;SDS011;6689;53.400;12.486;2022-09-13T01:16:21;4.13;;;3.20;;
13244;SDS011;6689;53.400;12.486;2022-09-13T01:19:02;3.63;;;3.20;;
13244;SDS011;6689;53.400;12.486;2022-09-13T01:21:46;3.85;;;3.55;;
13244;SDS011;6689;53.400;12.486;2022-09-13T01:28:11;4.80;;;3.70;;
13244;SDS011;6689;53.400;12.486;2022-09-13T01:31:16;3.57;;;3.27;;
13244;SDS011;6689;53.400;12.486;2022-09-13T01:33:54;3.97;;;3.67;;
13244;SDS011;6689;53.400;12.486;2022-09-13T01:39:31;4.68;;;4.00;;
13244;SDS011;6689;53.400;12.486;2022-09-13T01:42:15;5.25;;;3.75;;
13244;SDS011;6689;53.400;12.486;2022-09-13T01:45:01;5.30;;;4.28;;
13244;SDS011;6689;53.400;12.486;2022-09-13T01:47:56;6.32;;;4.22;;
13244;SDS011;6689;53.400;12.486;2022-09-13T01:50:41;3.80;;;3.35;;
13244;SDS011;6689;53.400;12.486;2022-09-13T01:53:30;6.43;;;4.18;;
13244;SDS011;6689;53.400;12.486;2022-09-13T01:56:13;4.20;;;3.80;;
13244;SDS011;6689;53.400;12.486;2022-09-13T01:58:47;5.53;;;4.03;;
13244;SDS011;6689;53.400;12.486;2022-09-13T02:01:34;6.90;;;3.83;;
13244;SDS011;6689;53.400;12.486;2022-09-13T02:04:20;4.25;;;3.85;;
13244;SDS011;6689;53.400;12.486;2022-09-13T02:06:51;4.90;;;4.05;;
13244;SDS011;6689;53.400;12.486;2022-09-13T02:09:27;5.95;;;4.15;;
13244;SDS011;6689;53.400;12.486;2022-09-13T02:12:01;5.95;;;3.58;;
13244;SDS011;6689;53.400;12.486;2022-09-13T02:14:36;4.63;;;4.15;;
13244;SDS011;6689;53.400;12.486;2022-09-13T02:17:06;6.15;;;3.97;;
13244;SDS011;6689;53.400;12.486;2022-09-13T02:19:57;4.00;;;3.60;;
13244;SDS011;6689;53.400;12.486;2022-09-13T02:24:59;4.90;;;4.00;;
13244;SDS011;6689;53.400;12.486;2022-09-13T02:27:32;4.10;;;3.70;;
13244;SDS011;6689;53.400;12.486;2022-09-13T02:30:02;4.70;;;4.05;;
13244;SDS011;6689;53.400;12.486;2022-09-13T02:32:37;5.82;;;3.72;;
13244;SDS011;6689;53.400;12.486;2022-09-13T02:35:17;4.53;;;3.97;;
13244;SDS011;6689;53.400;12.486;2022-09-13T02:37:47;4.30;;;3.90;;
13244;SDS011;6689;53.400;12.486;2022-09-13T02:40:18;5.15;;;4.00;;
13244;SDS011;6689;53.400;12.486;2022-09-13T02:42:52;4.28;;;3.88;;
13244;SDS011;6689;53.400;12.486;2022-09-13T02:45:27;4.60;;;3.85;;
13244;SDS011;6689;53.400;12.486;2022-09-13T02:50:44;9.13;;;4.18;;
13244;SDS011;6689;53.400;12.486;2022-09-13T02:53:33;7.82;;;4.47;;
13244;SDS011;6689;53.400;12.486;2022-09-13T02:56:20;5.18;;;4.68;;
13244;SDS011;6689;53.400;12.486;2022-09-13T02:59:03;5.07;;;4.57;;
13244;SDS011;6689;53.400;12.486;2022-09-13T03:01:42;5.13;;;4.63;;
13244;SDS011;6689;53.400;12.486;2022-09-13T03:04:17;6.50;;;4.65;;
13244;SDS011;6689;53.400;12.486;2022-09-13T03:09:31;5.30;;;4.80;;
13244;SDS011;6689;53.400;12.486;2022-09-13T03:12:09;14.13;;;6.07;;
13244;SDS011;6689;53.400;12.486;2022-09-13T03:15:05;6.03;;;5.40;;
13244;SDS011;6689;53.400;12.486;2022-09-13T03:17:45;7.53;;;5.82;;
13244;SDS011;6689;53.400;12.486;2022-09-13T03:20:29;5.93;;;5.32;;
13244;SDS011;6689;53.400;12.486;2022-09-13T03:26:30;6.60;;;5.95;;
13244;SDS011;6689;53.400;12.486;2022-09-13T03:29:26;12.43;;;6.80;;
13244;SDS011;6689;53.400;12.486;2022-09-13T03:32:01;7.68;;;6.93;;
13244;SDS011;6689;53.400;12.486;2022-09-13T03:34:53;7.82;;;7.13;;
13244;SDS011;6689;53.400;12.486;2022-09-13T03:37:30;9.25;;;7.28;;
13244;SDS011;6689;53.400;12.486;2022-09-13T03:40:18;8.52;;;7.72;;
13244;SDS011;6689;53.400;12.486;2022-09-13T03:42:53;8.60;;;7.75;;
13244;SDS011;6689;53.400;12.486;2022-09-13T03:45:29;7.20;;;6.53;;
13244;SDS011;6689;53.400;12.486;2022-09-13T03:48:13;8.32;;;7.55;;
13244;SDS011;6689;53.400;12.486;2022-09-13T03:50:55;8.45;;;7.25;;
13244;SDS011;6689;53.400;12.486;2022-09-13T03:53:24;8.23;;;7.50;;
13244;SDS011;6689;53.400;12.486;2022-09-13T03:58:59;9.02;;;7.20;;
13244;SDS011;6689;53.400;12.486;2022-09-13T04:01:28;9.63;;;7.25;;
13244;SDS011;6689;53.400;12.486;2022-09-13T04:03:57;8.35;;;7.20;;
13244;SDS011;6689;53.400;12.486;2022-09-13T04:06:28;8.68;;;7.88;;
13244;SDS011;6689;53.400;12.486;2022-09-13T04:09:02;9.05;;;8.13;;
13244;SDS011;6689;53.400;12.486;2022-09-13T04:14:28;8.07;;;7.32;;
13244;SDS011;6689;53.400;12.486;2022-09-13T04:17:09;9.63;;;7.57;;
13244;SDS011;6689;53.400;12.486;2022-09-13T04:19:43;8.20;;;7.47;;
13244;SDS011;6689;53.400;12.486;2022-09-13T04:22:24;10.02;;;9.13;;
13244;SDS011;6689;53.400;12.486;2022-09-13T04:24:53;9.57;;;8.68;;
13244;SDS011;6689;53.400;12.486;2022-09-13T04:30:24;9.43;;;8.52;;
13244;SDS011;6689;53.400;12.486;2022-09-13T04:32:53;11.48;;;9.35;;
13244;SDS011;6689;53.400;12.486;2022-09-13T04:35:34;10.35;;;9.23;;
13244;SDS011;6689;53.400;12.486;2022-09-13T04:38:03;9.68;;;8.88;;
13244;SDS011;6689;53.400;12.486;2022-09-13T04:40:44;10.10;;;9.10;;
13244;SDS011;6689;53.400;12.486;2022-09-13T04:43:33;13.98;;;9.55;;
13244;SDS011;6689;53.400;12.486;2022-09-13T04:46:01;15.90;;;9.38;;
13244;SDS011;6689;53.400;12.486;2022-09-13T04:48:44;9.88;;;8.98;;
13244;SDS011;6689;53.400;12.486;2022-09-13T04:51:28;10.75;;;8.88;;
13244;SDS011;6689;53.400;12.486;2022-09-13T04:54:09;9.90;;;9.00;;
13244;SDS011;6689;53.400;12.486;2022-09-13T04:56:38;10.57;;;9.52;;
13244;SDS011;6689;53.400;12.486;2022-09-13T04:59:09;11.25;;;9.23;;
13244;SDS011;6689;53.400;12.486;2022-09-13T05:01:37;9.90;;;8.90;;
13244;SDS011;6689;53.400;12.486;2022-09-13T05:04:18;11.50;;;10.35;;
13244;SDS011;6689;53.400;12.486;2022-09-13T05:06:49;10.23;;;9.25;;
13244;SDS011;6689;53.400;12.486;2022-09-13T05:09:30;10.43;;;9.43;;
13244;SDS011;6689;53.400;12.486;2022-09-13T05:11:58;17.23;;;9.98;;
13244;SDS011;6689;53.400;12.486;2022-09-13T05:14:28;9.27;;;8.45;;
13244;SDS011;6689;53.400;12.486;2022-09-13T05:17:09;10.45;;;9.45;;
13244;SDS011;6689;53.400;12.486;2022-09-13T05:19:38;10.98;;;9.63;;
13244;SDS011;6689;53.400;12.486;2022-09-13T05:22:09;10.82;;;9.55;;
13244;SDS011;6689;53.400;12.486;2022-09-13T05:24:50;11.10;;;9.57;;
13244;SDS011;6689;53.400;12.486;2022-09-13T05:27:31;11.10;;;10.00;;
13244;SDS011;6689;53.400;12.486;2022-09-13T05:32:58;11.75;;;9.55;;
13244;SDS011;6689;53.400;12.486;2022-09-13T05:35:33;11.43;;;9.80;;
13244;SDS011;6689;53.400;12.486;2022-09-13T05:38:03;9.70;;;8.80;;
13244;SDS011;6689;53.400;12.486;2022-09-13T05:40:34;10.18;;;9.27;;
13244;SDS011;6689;53.400;12.486;2022-09-13T05:43:02;12.13;;;9.38;;
13244;SDS011;6689;53.400;12.486;2022-09-13T05:49:08;11.52;;;10.18;;
13244;SDS011;6689;53.400;12.486;2022-09-13T05:51:39;10.10;;;9.00;;
13244;SDS011;6689;53.400;12.486;2022-09-13T05:54:09;12.80;;;10.65;;
13244;SDS011;6689;53.400;12.486;2022-09-13T05:56:51;12.15;;;10.10;;
13244;SDS011;6689;53.400;12.486;2022-09-13T05:59:21;10.73;;;9.73;;
13244;SDS011;6689;53.400;12.486;2022-09-13T06:01:49;15.35;;;10.65;;
13244;SDS011;6689;53.400;12.486;2022-09-13T06:04:34;16.73;;;9.73;;
13244;SDS011;6689;53.400;12.486;2022-09-13T06:07:14;10.20;;;9.30;;
13244;SDS011;6689;53.400;12.486;2022-09-13T06:09:55;11.07;;;9.50;;
13244;SDS011;6689;53.400;12.486;2022-09-13T06:12:24;16.63;;;10.10;;
13244;SDS011;6689;53.400;12.486;2022-09-13T06:14:53;10.80;;;9.52;;
13244;SDS011;6689;53.400;12.486;2022-09-13T06:17:28;13.05;;;9.85;;
13244;SDS011;6689;53.400;12.486;2022-09-13T06:20:18;15.52;;;9.30;;
13244;SDS011;6689;53.400;12.486;2022-09-13T06:22:46;11.77;;;10.63;;
13244;SDS011;6689;53.400;12.486;2022-09-13T06:25:14;10.70;;;9.70;;
13244;SDS011;6689;53.400;12.486;2022-09-13T06:27:43;12.63;;;11.32;;
13244;SDS011;6689;53.400;12.486;2022-09-13T06:30:24;12.52;;;11.15;;
13244;SDS011;6689;53.400;12.486;2022-09-13T06:32:54;11.30;;;10.27;;
13244;SDS011;6689;53.400;12.486;2022-09-13T06:41:35;11.13;;;10.02;;
13244;SDS011;6689;53.400;12.486;2022-09-13T06:44:06;11.77;;;10.55;;
13244;SDS011;6689;53.400;12.486;2022-09-13T06:46:35;14.02;;;11.52;;
13244;SDS011;6689;53.400;12.486;2022-09-13T06:49:04;13.02;;;11.32;;
13244;SDS011;6689;53.400;12.486;2022-09-13T06:51:34;11.85;;;10.75;;
13244;SDS011;6689;53.400;12.486;2022-09-13T06:57:05;11.82;;;10.63;;
13244;SDS011;6689;53.400;12.486;2022-09-13T06:59:39;11.43;;;10.18;;
13244;SDS011;6689;53.400;12.486;2022-09-13T07:02:10;11.60;;;10.50;;
13244;SDS011;6689;53.400;12.486;2022-09-13T07:04:39;14.82;;;10.40;;
13244;SDS011;6689;53.400;12.486;2022-09-13T07:07:10;14.63;;;10.13;;
13244;SDS011;6689;53.400;12.486;2022-09-13T07:09:46;12.45;;;11.25;;
13244;SDS011;6689;53.400;12.486;2022-09-13T07:12:26;12.15;;;10.05;;
13244;SDS011;6689;53.400;12.486;2022-09-13T07:14:54;12.25;;;11.05;;
13244;SDS011;6689;53.400;12.486;2022-09-13T07:17:34;12.52;;;11.15;;
13244;SDS011;6689;53.400;12.486;2022-09-13T07:20:16;15.13;;;10.43;;
13244;SDS011;6689;53.400;12.486;2022-09-13T07:22:47;12.40;;;11.10;;
13244;SDS011;6689;53.400;12.486;2022-09-13T07:25:40;13.35;;;11.07;;
13244;SDS011;6689;53.400;12.486;2022-09-13T07:28:21;15.85;;;11.52;;
13244;SDS011;6689;53.400;12.486;2022-09-13T07:31:06;12.45;;;11.25;;
13244;SDS011;6689;53.400;12.486;2022-09-13T07:33:34;14.50;;;13.00;;
13244;SDS011;6689;53.400;12.486;2022-09-13T07:36:06;13.82;;;12.02;;
13244;SDS011;6689;53.400;12.486;2022-09-13T07:38:40;14.65;;;13.15;;
13244;SDS011;6689;53.400;12.486;2022-09-13T07:41:31;14.75;;;12.55;;
13244;SDS011;6689;53.400;12.486;2022-09-13T07:44:00;14.85;;;12.98;;
13244;SDS011;6689;53.400;12.486;2022-09-13T07:46:33;16.27;;;14.45;;
13244;SDS011;6689;53.400;12.486;2022-09-13T07:49:11;16.77;;;14.32;;
13244;SDS011;6689;53.400;12.486;2022-09-13T07:51:40;16.35;;;14.70;;
13244;SDS011;6689;53.400;12.486;2022-09-13T07:59:55;16.38;;;14.35;;
13244;SDS011;6689;53.400;12.486;2022-09-13T08:02:35;17.23;;;14.88;;
13244;SDS011;6689;53.400;12.486;2022-09-13T08:05:14;16.05;;;14.45;;
13244;SDS011;6689;53.400;12.486;2022-09-13T08:07:44;19.10;;;15.57;;
13244;SDS011;6689;53.400;12.486;2022-09-13T08:10:15;18.27;;;14.68;;
13244;SDS011;6689;53.400;12.486;2022-09-13T08:12:46;16.20;;;14.55;;
13244;SDS011;6689;53.400;12.486;2022-09-13T08:15:21;16.42;;;14.07;;
13244;SDS011;6689;53.400;12.486;2022-09-13T08:17:50;15.90;;;13.45;;
13244;SDS011;6689;53.400;12.486;2022-09-13T08:20:21;15.52;;;13.57;;
13244;SDS011;6689;53.400;12.486;2022-09-13T08:23:02;19.30;;;14.50;;
13244;SDS011;6689;53.400;12.486;2022-09-13T08:25:31;16.17;;;14.18;;
13244;SDS011;6689;53.400;12.486;2022-09-13T08:28:07;18.52;;;13.82;;
13244;SDS011;6689;53.400;12.486;2022-09-13T08:31:01;16.23;;;13.73;;
13244;SDS011;6689;53.400;12.486;2022-09-13T08:33:43;17.08;;;13.70;;
13244;SDS011;6689;53.400;12.486;2022-09-13T08:36:11;20.25;;;15.65;;
13244;SDS011;6689;53.400;12.486;2022-09-13T08:38:53;15.93;;;13.90;;
13244;SDS011;6689;53.400;12.486;2022-09-13T08:41:48;18.50;;;14.27;;
13244;SDS011;6689;53.400;12.486;2022-09-13T08:44:41;17.63;;;13.98;;
13244;SDS011;6689;53.400;12.486;2022-09-13T08:47:31;16.55;;;13.68;;
13244;SDS011;6689;53.400;12.486;2022-09-13T08:50:09;17.50;;;14.48;;
13244;SDS011;6689;53.400;12.486;2022-09-13T08:52:47;17.38;;;13.77;;
13244;SDS011;6689;53.400;12.486;2022-09-13T08:55:40;17.17;;;14.73;;
13244;SDS011;6689;53.400;12.486;2022-09-13T08:58:29;16.77;;;14.73;;
13244;SDS011;6689;53.400;12.486;2022-09-13T09:01:22;16.15;;;14.52;;
13244;SDS011;6689;53.400;12.486;2022-09-13T09:07:10;16.90;;;13.73;;
13244;SDS011;6689;53.400;12.486;2022-09-13T09:09:41;15.75;;;14.02;;
13244;SDS011;6689;53.400;12.486;2022-09-13T09:12:20;16.70;;;13.57;;
13244;SDS011;6689;53.400;12.486;2022-09-13T09:14:58;16.52;;;14.57;;
13244;SDS011;6689;53.400;12.486;2022-09-13T09:17:31;17.17;;;14.40;;
13244;SDS011;6689;53.400;12.486;2022-09-13T09:20:24;19.25;;;13.90;;
13244;SDS011;6689;53.400;12.486;2022-09-13T09:23:11;14.93;;;13.32;;
13244;SDS011;6689;53.400;12.486;2022-09-13T09:25:56;17.30;;;15.40;;
13244;SDS011;6689;53.400;12.486;2022-09-13T09:28:36;15.63;;;14.02;;
13244;SDS011;6689;53.400;12.486;2022-09-13T09:31:10;17.73;;;14.32;;
13244;SDS011;6689;53.400;12.486;2022-09-13T09:33:57;16.70;;;14.82;;
13244;SDS011;6689;53.400;12.486;2022-09-13T09:36:43;16.35;;;12.90;;
13244;SDS011;6689;53.400;12.486;2022-09-13T09:39:22;14.43;;;12.80;;
13244;SDS011;6689;53.400;12.486;2022-09-13T09:42:10;15.63;;;13.75;;
13244;SDS011;6689;53.400;12.486;2022-09-13T09:44:42;15.23;;;13.68;;
13244;SDS011;6689;53.400;12.486;2022-09-13T09:47:18;15.23;;;13.65;;
13244;SDS011;6689;53.400;12.486;2022-09-13T09:49:49;15.93;;;14.27;;
13244;SDS011;6689;53.400;12.486;2022-09-13T09:52:42;16.10;;;13.60;;
13244;SDS011;6689;53.400;12.486;2022-09-13T09:55:19;15.35;;;13.40;;
13244;SDS011;6689;53.400;12.486;2022-09-13T09:58:02;15.05;;;13.57;;
13244;SDS011;6689;53.400;12.486;2022-09-13T10:00:34;12.95;;;11.60;;
13244;SDS011;6689;53.400;12.486;2022-09-13T10:03:06;14.70;;;11.68;;
13244;SDS011;6689;53.400;12.486;2022-09-13T10:05:43;14.88;;;11.15;;
13244;SDS011;6689;53.400;12.486;2022-09-13T10:08:24;11.98;;;10.70;;
13244;SDS011;6689;53.400;12.486;2022-09-13T10:11:08;10.63;;;7.93;;
13244;SDS011;6689;53.400;12.486;2022-09-13T10:13:59;11.05;;;7.50;;
13244;SDS011;6689;53.400;12.486;2022-09-13T10:16:28;10.30;;;7.80;;
13244;SDS011;6689;53.400;12.486;2022-09-13T10:22:00;8.07;;;7.28;;
13244;SDS011;6689;53.400;12.486;2022-09-13T10:24:52;8.00;;;7.18;;
13244;SDS011;6689;53.400;12.486;2022-09-13T10:27:24;9.40;;;7.30;;
13244;SDS011;6689;53.400;12.486;2022-09-13T10:33:02;10.02;;;8.18;;
13244;SDS011;6689;53.400;12.486;2022-09-13T10:35:46;10.50;;;7.35;;
13244;SDS011;6689;53.400;12.486;2022-09-13T10:38:28;8.10;;;7.05;;
13244;SDS011;6689;53.400;12.486;2022-09-13T10:41:23;7.88;;;7.07;;
13244;SDS011;6689;53.400;12.486;2022-09-13T10:43:57;10.38;;;6.38;;
13244;SDS011;6689;53.400;12.486;2022-09-13T10:46:40;9.30;;;6.30;;
13244;SDS011;6689;53.400;12.486;2022-09-13T10:49:34;9.73;;;6.53;;
13244;SDS011;6689;53.400;12.486;2022-09-13T10:55:19;8.50;;;6.00;;
13244;SDS011;6689;53.400;12.486;2022-09-13T11:01:25;7.80;;;5.80;;
13244;SDS011;6689;53.400;12.486;2022-09-13T11:04:36;8.38;;;4.78;;
13244;SDS011;6689;53.400;12.486;2022-09-13T11:07:43;7.25;;;5.03;;
13244;SDS011;6689;53.400;12.486;2022-09-13T11:10:30;7.10;;;4.68;;
13244;SDS011;6689;53.400;12.486;2022-09-13T11:13:13;6.75;;;4.60;;
13244;SDS011;6689;53.400;12.486;2022-09-13T11:15:51;6.65;;;3.88;;
13244;SDS011;6689;53.400;12.486;2022-09-13T11:18:37;8.73;;;4.63;;
13244;SDS011;6689;53.400;12.486;2022-09-13T11:21:22;5.28;;;3.72;;
13244;SDS011;6689;53.400;12.486;2022-09-13T11:24:02;7.15;;;3.67;;
13244;SDS011;6689;53.400;12.486;2022-09-13T11:26:46;7.43;;;3.58;;
13244;SDS011;6689;53.400;12.486;2022-09-13T11:29:41;5.65;;;4.13;;
13244;SDS011;6689;53.400;12.486;2022-09-13T11:35:48;5.88;;;4.00;;
13244;SDS011;6689;53.400;12.486;2022-09-13T11:38:41;5.47;;;3.40;;
13244;SDS011;6689;53.400;12.486;2022-09-13T11:41:33;5.05;;;3.80;;
13244;SDS011;6689;53.400;12.486;2022-09-13T11:44:14;6.68;;;3.17;;
13244;SDS011;6689;53.400;12.486;2022-09-13T11:46:55;9.85;;;3.40;;
13244;SDS011;6689;53.400;12.486;2022-09-13T11:49:40;5.72;;;2.92;;
13244;SDS011;6689;53.400;12.486;2022-09-13T11:52:50;8.05;;;3.83;;
13244;SDS011;6689;53.400;12.486;2022-09-13T11:55:29;8.27;;;3.58;;
13244;SDS011;6689;53.400;12.486;2022-09-13T11:58:19;6.00;;;3.60;;
13244;SDS011;6689;53.400;12.486;2022-09-13T12:01:04;5.32;;;3.45;;
13244;SDS011;6689;53.400;12.486;2022-09-13T12:03:37;8.15;;;3.70;;
13244;SDS011;6689;53.400;12.486;2022-09-13T12:06:24;4.88;;;3.75;;
13244;SDS011;6689;53.400;12.486;2022-09-13T12:09:10;5.78;;;3.35;;
13244;SDS011;6689;53.400;12.486;2022-09-13T12:11:44;3.95;;;3.30;;
13244;SDS011;6689;53.400;12.486;2022-09-13T12:14:19;5.70;;;3.33;;
13244;SDS011;6689;53.400;12.486;2022-09-13T12:16:53;5.75;;;2.60;;
13244;SDS011;6689;53.400;12.486;2022-09-13T12:19:39;4.55;;;3.00;;
13244;SDS011;6689;53.400;12.486;2022-09-13T12:22:25;4.95;;;2.85;;
13244;SDS011;6689;53.400;12.486;2022-09-13T12:25:01;4.43;;;2.83;;
13244;SDS011;6689;53.400;12.486;2022-09-13T12:27:35;6.90;;;3.03;;
13244;SDS011;6689;53.400;12.486;2022-09-13T12:30:08;3.25;;;2.25;;
13244;SDS011;6689;53.400;12.486;2022-09-13T12:32:44;6.15;;;2.55;;
13244;SDS011;6689;53.400;12.486;2022-09-13T12:35:16;4.85;;;2.67;;
13244;SDS011;6689;53.400;12.486;2022-09-13T12:41:10;3.95;;;2.35;;
13244;SDS011;6689;53.400;12.486;2022-09-13T12:47:08;5.97;;;2.65;;
13244;SDS011;6689;53.400;12.486;2022-09-13T12:49:53;6.68;;;2.63;;
13244;SDS011;6689;53.400;12.486;2022-09-13T12:52:44;3.53;;;2.30;;
13244;SDS011;6689;53.400;12.486;2022-09-13T12:55:30;4.72;;;2.55;;
13244;SDS011;6689;53.400;12.486;2022-09-13T12:58:27;6.55;;;2.17;;
13244;SDS011;6689;53.400;12.486;2022-09-13T13:01:25;4.90;;;2.60;;
13244;SDS011;6689;53.400;12.486;2022-09-13T13:03:55;5.57;;;2.40;;
13244;SDS011;6689;53.400;12.486;2022-09-13T13:06:30;5.03;;;1.80;;
13244;SDS011;6689;53.400;12.486;2022-09-13T13:09:03;12.43;;;2.55;;
13244;SDS011;6689;53.400;12.486;2022-09-13T13:11:58;6.45;;;2.50;;
13244;SDS011;6689;53.400;12.486;2022-09-13T13:14:49;3.90;;;1.60;;
13244;SDS011;6689;53.400;12.486;2022-09-13T13:17:38;4.88;;;1.70;;
13244;SDS011;6689;53.400;12.486;2022-09-13T13:23:40;5.25;;;2.22;;
13244;SDS011;6689;53.400;12.486;2022-09-13T13:29:11;5.25;;;1.40;;
13244;SDS011;6689;53.400;12.486;2022-09-13T13:34:49;3.13;;;1.10;;
13244;SDS011;6689;53.400;12.486;2022-09-13T13:37:29;5.70;;;1.40;;
13244;SDS011;6689;53.400;12.486;2022-09-13T13:46:25;4.25;;;1.20;;
13244;SDS011;6689;53.400;12.486;2022-09-13T13:55:41;3.78;;;1.13;;
13244;SDS011;6689;53.400;12.486;2022-09-13T13:58:35;3.58;;;1.10;;
13244;SDS011;6689;53.400;12.486;2022-09-13T14:01:13;5.53;;;1.23;;
13244;SDS011;6689;53.400;12.486;2022-09-13T14:04:20;4.57;;;1.38;;
13244;SDS011;6689;53.400;12.486;2022-09-13T14:10:25;3.90;;;0.98;;
13244;SDS011;6689;53.400;12.486;2022-09-13T14:16:24;6.93;;;0.95;;
13244;SDS011;6689;53.400;12.486;2022-09-13T14:19:08;4.97;;;1.17;;
13244;SDS011;6689;53.400;12.486;2022-09-13T14:22:04;2.90;;;0.70;;
13244;SDS011;6689;53.400;12.486;2022-09-13T14:24:46;6.78;;;1.30;;
13244;SDS011;6689;53.400;12.486;2022-09-13T14:27:17;2.92;;;1.00;;
13244;SDS011;6689;53.400;12.486;2022-09-13T14:33:01;3.60;;;1.00;;
13244;SDS011;6689;53.400;12.486;2022-09-13T14:35:31;7.07;;;1.65;;
13244;SDS011;6689;53.400;12.486;2022-09-13T14:38:17;4.55;;;1.55;;
13244;SDS011;6689;53.400;12.486;2022-09-13T14:40:46;4.50;;;0.98;;
13244;SDS011;6689;53.400;12.486;2022-09-13T14:43:20;4.47;;;1.27;;
13244;SDS011;6689;53.400;12.486;2022-09-13T14:48:56;7.05;;;1.42;;
13244;SDS011;6689;53.400;12.486;2022-09-13T14:51:27;5.53;;;1.25;;
13244;SDS011;6689;53.400;12.486;2022-09-13T14:54:03;4.13;;;1.33;;
13244;SDS011;6689;53.400;12.486;2022-09-13T14:56:51;3.42;;;0.80;;
13244;SDS011;6689;53.400;12.486;2022-09-13T14:59:22;6.85;;;1.85;;
13244;SDS011;6689;53.400;12.486;2022-09-13T15:02:16;9.02;;;2.03;;
13244;SDS011;6689;53.400;12.486;2022-09-13T15:04:47;4.40;;;1.20;;
13244;SDS011;6689;53.400;12.486;2022-09-13T15:07:22;6.30;;;1.58;;
13244;SDS011;6689;53.400;12.486;2022-09-13T15:10:18;3.72;;;1.23;;
13244;SDS011;6689;53.400;12.486;2022-09-13T15:13:07;5.90;;;1.58;;
13244;SDS011;6689;53.400;12.486;2022-09-13T15:15:35;7.13;;;1.20;;
13244;SDS011;6689;53.400;12.486;2022-09-13T15:21:02;7.63;;;1.40;;
13244;SDS011;6689;53.400;12.486;2022-09-13T15:23:33;5.00;;;1.98;;
13244;SDS011;6689;53.400;12.486;2022-09-13T15:26:06;10.32;;;1.73;;
13244;SDS011;6689;53.400;12.486;2022-09-13T15:28:45;7.05;;;1.70;;
13244;SDS011;6689;53.400;12.486;2022-09-13T15:31:35;5.68;;;1.38;;
13244;SDS011;6689;53.400;12.486;2022-09-13T15:34:18;5.68;;;1.70;;
13244;SDS011;6689;53.400;12.486;2022-09-13T15:37:09;5.38;;;1.48;;
13244;SDS011;6689;53.400;12.486;2022-09-13T15:40:01;6.95;;;1.73;;
13244;SDS011;6689;53.400;12.486;2022-09-13T15:42:44;5.82;;;1.65;;
13244;SDS011;6689;53.400;12.486;2022-09-13T15:47:46;4.68;;;1.50;;
13244;SDS011;6689;53.400;12.486;2022-09-13T15:53:08;5.82;;;1.48;;
13244;SDS011;6689;53.400;12.486;2022-09-13T15:56:03;5.13;;;1.55;;
13244;SDS011;6689;53.400;12.486;2022-09-13T15:58:46;8.18;;;1.63;;
13244;SDS011;6689;53.400;12.486;2022-09-13T16:01:17;4.95;;;1.63;;
13244;SDS011;6689;53.400;12.486;2022-09-13T16:03:58;5.53;;;1.50;;
13244;SDS011;6689;53.400;12.486;2022-09-13T16:06:45;5.60;;;2.25;;
13244;SDS011;6689;53.400;12.486;2022-09-13T16:09:16;5.40;;;1.65;;
13244;SDS011;6689;53.400;12.486;2022-09-13T16:11:46;6.72;;;1.63;;
13244;SDS011;6689;53.400;12.486;2022-09-13T16:14:18;6.15;;;1.48;;
13244;SDS011;6689;53.400;12.486;2022-09-13T16:16:59;5.38;;;1.30;;
13244;SDS011;6689;53.400;12.486;2022-09-13T16:19:43;9.68;;;1.65;;
13244;SDS011;6689;53.400;12.486;2022-09-13T16:25:06;5.65;;;1.50;;
13244;SDS011;6689;53.400;12.486;2022-09-13T16:27:37;10.18;;;1.67;;
13244;SDS011;6689;53.400;12.486;2022-09-13T16:30:06;5.95;;;1.80;;
13244;SDS011;6689;53.400;12.486;2022-09-13T16:32:36;5.63;;;1.55;;
13244;SDS011;6689;53.400;12.486;2022-09-13T16:35:17;5.30;;;1.30;;
13244;SDS011;6689;53.400;12.486;2022-09-13T16:38:07;2.92;;;1.50;;
13244;SDS011;6689;53.400;12.486;2022-09-13T16:40:49;8.65;;;1.90;;
13244;SDS011;6689;53.400;12.486;2022-09-13T16:43:17;7.57;;;1.30;;
13244;SDS011;6689;53.400;12.486;2022-09-13T16:45:53;5.43;;;1.50;;
13244;SDS011;6689;53.400;12.486;2022-09-13T16:48:28;7.15;;;1.38;;
13244;SDS011;6689;53.400;12.486;2022-09-13T16:51:07;6.18;;;1.27;;
13244;SDS011;6689;53.400;12.486;2022-09-13T16:53:51;6.45;;;1.13;;
13244;SDS011;6689;53.400;12.486;2022-09-13T16:56:24;2.70;;;1.00;;
13244;SDS011;6689;53.400;12.486;2022-09-13T16:58:54;8.77;;;1.80;;
13244;SDS011;6689;53.400;12.486;2022-09-13T17:01:22;4.95;;;1.52;;
13244;SDS011;6689;53.400;12.486;2022-09-13T17:03:57;6.28;;;2.03;;
13244;SDS011;6689;53.400;12.486;2022-09-13T17:06:24;5.07;;;1.23;;
13244;SDS011;6689;53.400;12.486;2022-09-13T17:09:00;3.15;;;1.15;;
13244;SDS011;6689;53.400;12.486;2022-09-13T17:11:42;4.60;;;1.33;;
13244;SDS011;6689;53.400;12.486;2022-09-13T17:14:11;7.00;;;1.58;;
13244;SDS011;6689;53.400;12.486;2022-09-13T17:16:44;5.53;;;2.15;;
13244;SDS011;6689;53.400;12.486;2022-09-13T17:19:15;8.77;;;1.98;;
13244;SDS011;6689;53.400;12.486;2022-09-13T17:21:45;4.40;;;1.48;;
13244;SDS011;6689;53.400;12.486;2022-09-13T17:24:24;9.40;;;1.90;;
13244;SDS011;6689;53.400;12.486;2022-09-13T17:26:54;4.25;;;1.15;;
13244;SDS011;6689;53.400;12.486;2022-09-13T17:29:24;2.72;;;1.25;;
13244;SDS011;6689;53.400;12.486;2022-09-13T17:31:58;7.03;;;2.10;;
13244;SDS011;6689;53.400;12.486;2022-09-13T17:34:26;5.80;;;1.30;;
13244;SDS011;6689;53.400;12.486;2022-09-13T17:37:07;6.63;;;2.10;;
13244;SDS011;6689;53.400;12.486;2022-09-13T17:39:38;6.57;;;2.08;;
13244;SDS011;6689;53.400;12.486;2022-09-13T17:42:06;6.07;;;1.67;;
13244;SDS011;6689;53.400;12.486;2022-09-13T17:44:37;5.03;;;1.80;;
13244;SDS011;6689;53.400;12.486;2022-09-13T17:49:41;7.13;;;1.40;;
13244;SDS011;6689;53.400;12.486;2022-09-13T17:52:12;8.20;;;1.50;;
13244;SDS011;6689;53.400;12.486;2022-09-13T17:54:43;4.00;;;1.70;;